sensor_id;sensor_type;location;lat;lon;timestamp;pressure;altitude;pressure_sealevel;temperature;humidity
1401;BME280;46518;48.842;8.926;2022-12-28T00:00:39;97898.25;;;4.30;86.14
1401;BME280;46518;48.842;8.926;2022-12-28T00:03:07;97900.06;;;4.29;86.40
1401;BME280;46518;48.842;8.926;2022-12-28T00:05:35;97892.84;;;4.10;85.30
1401;BME280;46518;48.842;8.926;2022-12-28T00:08:04;97884.38;;;4.08;85.57
1401;BME280;46518;48.842;8.926;2022-12-28T00:10:33;97882.91;;;4.20;85.82
1401;BME280;46518;48.842;8.926;2022-12-28T00:13:21;97869.63;;;4.37;86.19
1401;BME280;46518;48.842;8.926;2022-12-28T00:15:50;97864.94;;;4.47;85.88
1401;BME280;46518;48.842;8.926;2022-12-28T00:18:21;97858.47;;;4.43;85.84
1401;BME280;46518;48.842;8.926;2022-12-28T00:20:56;97866.53;;;4.48;84.82
1401;BME280;46518;48.842;8.926;2022-12-28T00:23:25;97875.09;;;4.42;84.61
1401;BME280;46518;48.842;8.926;2022-12-28T00:25:54;97872.47;;;4.42;84.70
1401;BME280;46518;48.842;8.926;2022-12-28T00:28:22;97871.69;;;4.41;83.67
1401;BME280;46518;48.842;8.926;2022-12-28T00:30:50;97865.78;;;4.32;83.77
1401;BME280;46518;48.842;8.926;2022-12-28T00:33:18;97864.41;;;4.37;83.50
1401;BME280;46518;48.842;8.926;2022-12-28T00:35:52;97867.59;;;4.32;82.74
1401;BME280;46518;48.842;8.926;2022-12-28T00:38:30;97866.78;;;4.31;83.33
1401;BME280;46518;48.842;8.926;2022-12-28T00:40:59;97850.19;;;4.39;82.87
1401;BME280;46518;48.842;8.926;2022-12-28T00:43:28;97850.81;;;4.41;82.72
1401;BME280;46518;48.842;8.926;2022-12-28T00:45:58;97843.00;;;4.41;82.45
1401;BME280;46518;48.842;8.926;2022-12-28T00:48:26;97811.81;;;4.26;82.33
1401;BME280;46518;48.842;8.926;2022-12-28T00:51:00;97828.16;;;4.42;82.92
1401;BME280;46518;48.842;8.926;2022-12-28T00:53:28;97828.75;;;4.37;83.06
1401;BME280;46518;48.842;8.926;2022-12-28T00:56:05;97835.41;;;4.40;82.73
1401;BME280;46518;48.842;8.926;2022-12-28T00:58:33;97829.56;;;4.38;82.69
1401;BME280;46518;48.842;8.926;2022-12-28T01:01:02;97828.13;;;4.35;82.39
1401;BME280;46518;48.842;8.926;2022-12-28T01:03:31;97824.72;;;4.35;82.39
1401;BME280;46518;48.842;8.926;2022-12-28T01:06:04;97814.88;;;4.30;82.39
1401;BME280;46518;48.842;8.926;2022-12-28T01:08:32;97810.28;;;4.32;82.60
1401;BME280;46518;48.842;8.926;2022-12-28T01:11:08;97819.88;;;4.31;83.06
1401;BME280;46518;48.842;8.926;2022-12-28T01:13:37;97815.09;;;4.35;82.39
1401;BME280;46518;48.842;8.926;2022-12-28T01:16:10;97813.44;;;4.27;82.69
1401;BME280;46518;48.842;8.926;2022-12-28T01:18:38;97806.84;;;4.31;82.39
1401;BME280;46518;48.842;8.926;2022-12-28T01:21:08;97808.25;;;4.34;82.87
1401;BME280;46518;48.842;8.926;2022-12-28T01:23:42;97803.50;;;4.38;82.85
1401;BME280;46518;48.842;8.926;2022-12-28T01:26:12;97802.25;;;4.33;83.02
1401;BME280;46518;48.842;8.926;2022-12-28T01:28:41;97799.47;;;4.35;82.97
1401;BME280;46518;48.842;8.926;2022-12-28T01:31:11;97799.72;;;4.40;83.90
1401;BME280;46518;48.842;8.926;2022-12-28T01:33:40;97781.25;;;4.42;83.55
1401;BME280;46518;48.842;8.926;2022-12-28T01:36:12;97795.59;;;4.52;83.55
1401;BME280;46518;48.842;8.926;2022-12-28T01:38:41;97798.44;;;4.58;83.53
1401;BME280;46518;48.842;8.926;2022-12-28T01:41:12;97796.25;;;4.61;83.40
1401;BME280;46518;48.842;8.926;2022-12-28T01:43:43;97785.47;;;4.64;83.24
1401;BME280;46518;48.842;8.926;2022-12-28T01:46:14;97780.66;;;4.68;82.84
1401;BME280;46518;48.842;8.926;2022-12-28T01:48:47;97764.97;;;4.61;82.71
1401;BME280;46518;48.842;8.926;2022-12-28T01:51:19;97767.63;;;4.68;82.27
1401;BME280;46518;48.842;8.926;2022-12-28T01:53:49;97768.41;;;4.68;82.25
1401;BME280;46518;48.842;8.926;2022-12-28T01:56:22;97766.03;;;4.73;81.92
1401;BME280;46518;48.842;8.926;2022-12-28T01:58:50;97771.25;;;4.73;82.19
1401;BME280;46518;48.842;8.926;2022-12-28T02:01:18;97755.59;;;4.73;82.09
1401;BME280;46518;48.842;8.926;2022-12-28T02:03:47;97761.44;;;4.75;81.85
1401;BME280;46518;48.842;8.926;2022-12-28T02:06:15;97758.03;;;4.75;82.10
1401;BME280;46518;48.842;8.926;2022-12-28T02:08:47;97755.44;;;4.82;81.57
1401;BME280;46518;48.842;8.926;2022-12-28T02:11:17;97727.09;;;4.65;81.54
1401;BME280;46518;48.842;8.926;2022-12-28T02:13:49;97756.03;;;4.77;81.38
1401;BME280;46518;48.842;8.926;2022-12-28T02:16:18;97740.34;;;4.70;81.23
1401;BME280;46518;48.842;8.926;2022-12-28T02:18:46;97745.63;;;4.77;81.47
1401;BME280;46518;48.842;8.926;2022-12-28T02:21:21;97741.78;;;4.73;81.03
1401;BME280;46518;48.842;8.926;2022-12-28T02:24:11;97742.00;;;4.78;81.07
1401;BME280;46518;48.842;8.926;2022-12-28T02:26:50;97726.75;;;4.75;80.58
1401;BME280;46518;48.842;8.926;2022-12-28T02:29:53;97729.97;;;4.77;80.06
1401;BME280;46518;48.842;8.926;2022-12-28T02:32:45;97720.28;;;4.71;80.68
1401;BME280;46518;48.842;8.926;2022-12-28T02:35:20;97705.09;;;4.74;80.44
1401;BME280;46518;48.842;8.926;2022-12-28T02:37:54;97711.50;;;4.72;80.52
1401;BME280;46518;48.842;8.926;2022-12-28T02:40:25;97710.88;;;4.70;80.56
1401;BME280;46518;48.842;8.926;2022-12-28T02:42:56;97703.47;;;4.73;81.32
1401;BME280;46518;48.842;8.926;2022-12-28T02:45:37;97707.72;;;4.81;80.61
1401;BME280;46518;48.842;8.926;2022-12-28T02:48:23;97705.31;;;4.86;80.42
1401;BME280;46518;48.842;8.926;2022-12-28T02:51:30;97689.09;;;4.91;80.45
1401;BME280;46518;48.842;8.926;2022-12-28T02:54:17;97679.69;;;4.90;80.04
1401;BME280;46518;48.842;8.926;2022-12-28T02:57:09;97661.03;;;4.93;80.17
1401;BME280;46518;48.842;8.926;2022-12-28T02:59:54;97668.03;;;4.92;80.22
1401;BME280;46518;48.842;8.926;2022-12-28T03:03:02;97662.03;;;4.92;79.39
1401;BME280;46518;48.842;8.926;2022-12-28T03:05:47;97669.47;;;4.95;79.02
1401;BME280;46518;48.842;8.926;2022-12-28T03:08:45;97666.41;;;4.91;79.26
1401;BME280;46518;48.842;8.926;2022-12-28T03:11:21;97670.88;;;4.97;79.39
1401;BME280;46518;48.842;8.926;2022-12-28T03:13:54;97687.97;;;5.07;79.37
1401;BME280;46518;48.842;8.926;2022-12-28T03:16:30;97679.94;;;5.08;78.28
1401;BME280;46518;48.842;8.926;2022-12-28T03:19:27;97643.00;;;5.05;78.11
1401;BME280;46518;48.842;8.926;2022-12-28T03:22:14;97661.09;;;5.13;78.56
1401;BME280;46518;48.842;8.926;2022-12-28T03:25:05;97654.06;;;5.13;78.46
1401;BME280;46518;48.842;8.926;2022-12-28T03:27:52;97648.44;;;5.10;77.44
1401;BME280;46518;48.842;8.926;2022-12-28T03:30:41;97648.00;;;5.06;78.49
1401;BME280;46518;48.842;8.926;2022-12-28T03:33:31;97644.81;;;5.04;78.03
1401;BME280;46518;48.842;8.926;2022-12-28T03:36:03;97639.16;;;5.01;78.27
1401;BME280;46518;48.842;8.926;2022-12-28T03:38:40;97632.34;;;5.00;78.58
1401;BME280;46518;48.842;8.926;2022-12-28T03:41:14;97641.59;;;5.02;78.94
1401;BME280;46518;48.842;8.926;2022-12-28T03:43:52;97645.41;;;5.06;78.45
1401;BME280;46518;48.842;8.926;2022-12-28T03:46:23;97628.56;;;5.09;78.53
1401;BME280;46518;48.842;8.926;2022-12-28T03:48:56;97640.41;;;5.11;78.12
1401;BME280;46518;48.842;8.926;2022-12-28T03:51:28;97641.59;;;5.09;77.99
1401;BME280;46518;48.842;8.926;2022-12-28T03:54:01;97631.78;;;5.11;78.10
1401;BME280;46518;48.842;8.926;2022-12-28T03:56:29;97635.78;;;5.13;78.23
1401;BME280;46518;48.842;8.926;2022-12-28T03:59:00;97636.81;;;5.19;78.12
1401;BME280;46518;48.842;8.926;2022-12-28T04:01:39;97627.97;;;5.20;78.25
1401;BME280;46518;48.842;8.926;2022-12-28T04:04:07;97624.78;;;5.25;77.32
1401;BME280;46518;48.842;8.926;2022-12-28T04:06:37;97631.00;;;5.24;77.43
1401;BME280;46518;48.842;8.926;2022-12-28T04:09:05;97625.56;;;5.18;77.94
1401;BME280;46518;48.842;8.926;2022-12-28T04:11:58;97619.75;;;5.23;77.61
1401;BME280;46518;48.842;8.926;2022-12-28T04:14:46;97622.19;;;5.25;77.26
1401;BME280;46518;48.842;8.926;2022-12-28T04:17:14;97613.34;;;5.26;77.13
1401;BME280;46518;48.842;8.926;2022-12-28T04:19:42;97604.72;;;5.25;77.31
1401;BME280;46518;48.842;8.926;2022-12-28T04:22:11;97581.59;;;5.15;76.91
1401;BME280;46518;48.842;8.926;2022-12-28T04:24:40;97597.09;;;5.30;77.40
1401;BME280;46518;48.842;8.926;2022-12-28T04:27:08;97592.88;;;5.36;76.77
1401;BME280;46518;48.842;8.926;2022-12-28T04:29:36;97572.38;;;5.19;77.10
1401;BME280;46518;48.842;8.926;2022-12-28T04:32:11;97593.66;;;5.36;77.11
1401;BME280;46518;48.842;8.926;2022-12-28T04:34:40;97591.88;;;5.37;76.96
1401;BME280;46518;48.842;8.926;2022-12-28T04:37:24;97586.47;;;5.45;76.66
1401;BME280;46518;48.842;8.926;2022-12-28T04:39:52;97587.47;;;5.37;76.62
1401;BME280;46518;48.842;8.926;2022-12-28T04:42:24;97588.88;;;5.47;76.12
1401;BME280;46518;48.842;8.926;2022-12-28T04:44:54;97599.31;;;5.47;76.33
1401;BME280;46518;48.842;8.926;2022-12-28T04:47:22;97593.47;;;5.51;76.13
1401;BME280;46518;48.842;8.926;2022-12-28T04:49:51;97595.91;;;5.53;75.83
1401;BME280;46518;48.842;8.926;2022-12-28T04:52:19;97595.72;;;5.54;75.87
1401;BME280;46518;48.842;8.926;2022-12-28T04:54:49;97593.88;;;5.48;76.08
1401;BME280;46518;48.842;8.926;2022-12-28T04:57:17;97586.47;;;5.52;76.01
1401;BME280;46518;48.842;8.926;2022-12-28T04:59:45;97585.44;;;5.53;76.21
1401;BME280;46518;48.842;8.926;2022-12-28T05:02:14;97581.44;;;5.50;75.93
1401;BME280;46518;48.842;8.926;2022-12-28T05:04:42;97582.03;;;5.52;76.17
1401;BME280;46518;48.842;8.926;2022-12-28T05:07:11;97568.78;;;5.47;76.20
1401;BME280;46518;48.842;8.926;2022-12-28T05:09:39;97579.03;;;5.55;76.32
1401;BME280;46518;48.842;8.926;2022-12-28T05:12:08;97580.03;;;5.54;76.30
1401;BME280;46518;48.842;8.926;2022-12-28T05:14:36;97567.19;;;5.59;75.90
1401;BME280;46518;48.842;8.926;2022-12-28T05:17:04;97570.00;;;5.65;75.76
1401;BME280;46518;48.842;8.926;2022-12-28T05:19:33;97575.22;;;5.65;76.35
1401;BME280;46518;48.842;8.926;2022-12-28T05:22:01;97573.22;;;5.67;76.14
1401;BME280;46518;48.842;8.926;2022-12-28T05:24:29;97571.16;;;5.69;75.88
1401;BME280;46518;48.842;8.926;2022-12-28T05:26:57;97581.25;;;5.72;75.86
1401;BME280;46518;48.842;8.926;2022-12-28T05:29:35;97571.38;;;5.74;76.01
1401;BME280;46518;48.842;8.926;2022-12-28T05:32:04;97574.59;;;5.82;75.58
1401;BME280;46518;48.842;8.926;2022-12-28T05:34:35;97563.53;;;5.80;75.28
1401;BME280;46518;48.842;8.926;2022-12-28T05:37:04;97575.38;;;5.83;75.23
1401;BME280;46518;48.842;8.926;2022-12-28T05:39:32;97564.31;;;5.81;74.91
1401;BME280;46518;48.842;8.926;2022-12-28T05:42:00;97564.75;;;5.84;75.19
1401;BME280;46518;48.842;8.926;2022-12-28T05:44:28;97554.69;;;5.81;75.38
1401;BME280;46518;48.842;8.926;2022-12-28T05:46:58;97553.88;;;5.88;74.88
1401;BME280;46518;48.842;8.926;2022-12-28T05:49:52;97554.88;;;5.93;75.32
1401;BME280;46518;48.842;8.926;2022-12-28T05:52:20;97551.47;;;5.93;75.46
1401;BME280;46518;48.842;8.926;2022-12-28T05:54:48;97548.88;;;5.99;74.74
1401;BME280;46518;48.842;8.926;2022-12-28T05:57:16;97550.47;;;6.00;74.86
1401;BME280;46518;48.842;8.926;2022-12-28T05:59:44;97542.63;;;6.07;74.32
1401;BME280;46518;48.842;8.926;2022-12-28T06:02:14;97542.56;;;6.14;74.26
1401;BME280;46518;48.842;8.926;2022-12-28T06:04:50;97536.97;;;6.10;73.99
1401;BME280;46518;48.842;8.926;2022-12-28T06:07:18;97538.56;;;6.18;73.86
1401;BME280;46518;48.842;8.926;2022-12-28T06:09:55;97541.19;;;6.11;74.60
1401;BME280;46518;48.842;8.926;2022-12-28T06:12:23;97536.72;;;6.18;74.00
1401;BME280;46518;48.842;8.926;2022-12-28T06:14:51;97528.09;;;6.18;73.87
1401;BME280;46518;48.842;8.926;2022-12-28T06:17:21;97534.91;;;6.19;73.83
1401;BME280;46518;48.842;8.926;2022-12-28T06:19:49;97529.31;;;6.22;73.72
1401;BME280;46518;48.842;8.926;2022-12-28T06:22:17;97509.44;;;6.08;73.91
1401;BME280;46518;48.842;8.926;2022-12-28T06:24:45;97537.53;;;6.25;73.44
1401;BME280;46518;48.842;8.926;2022-12-28T06:27:13;97533.91;;;6.26;73.42
1401;BME280;46518;48.842;8.926;2022-12-28T06:29:41;97530.28;;;6.28;73.36
1401;BME280;46518;48.842;8.926;2022-12-28T06:32:10;97520.03;;;6.26;73.74
1401;BME280;46518;48.842;8.926;2022-12-28T06:34:39;97510.78;;;6.23;73.59
1401;BME280;46518;48.842;8.926;2022-12-28T06:37:07;97532.44;;;6.37;73.57
1401;BME280;46518;48.842;8.926;2022-12-28T06:39:36;97531.44;;;6.38;72.86
1401;BME280;46518;48.842;8.926;2022-12-28T06:42:04;97534.47;;;6.35;72.74
1401;BME280;46518;48.842;8.926;2022-12-28T06:44:32;97536.06;;;6.36;73.00
1401;BME280;46518;48.842;8.926;2022-12-28T06:47:08;97520.59;;;6.35;73.15
1401;BME280;46518;48.842;8.926;2022-12-28T06:49:36;97515.56;;;6.40;72.66
1401;BME280;46518;48.842;8.926;2022-12-28T06:52:05;97505.28;;;6.38;72.67
1401;BME280;46518;48.842;8.926;2022-12-28T06:54:33;97504.94;;;6.28;72.74
1401;BME280;46518;48.842;8.926;2022-12-28T06:57:02;97510.34;;;6.33;73.06
1401;BME280;46518;48.842;8.926;2022-12-28T06:59:30;97506.31;;;6.37;72.69
1401;BME280;46518;48.842;8.926;2022-12-28T07:01:58;97503.28;;;6.34;73.52
1401;BME280;46518;48.842;8.926;2022-12-28T07:04:26;97486.63;;;6.28;72.86
1401;BME280;46518;48.842;8.926;2022-12-28T07:07:33;97499.47;;;6.36;73.10
1401;BME280;46518;48.842;8.926;2022-12-28T07:10:02;97496.22;;;6.41;72.76
1401;BME280;46518;48.842;8.926;2022-12-28T07:12:40;97496.03;;;6.42;72.57
1401;BME280;46518;48.842;8.926;2022-12-28T07:15:09;97499.06;;;6.39;72.59
1401;BME280;46518;48.842;8.926;2022-12-28T07:17:37;97485.78;;;6.41;72.70
1401;BME280;46518;48.842;8.926;2022-12-28T07:20:06;97490.38;;;6.45;72.71
1401;BME280;46518;48.842;8.926;2022-12-28T07:22:36;97497.44;;;6.45;72.90
1401;BME280;46518;48.842;8.926;2022-12-28T07:25:05;97491.41;;;6.44;72.86
1401;BME280;46518;48.842;8.926;2022-12-28T07:27:34;97489.75;;;6.50;72.86
1401;BME280;46518;48.842;8.926;2022-12-28T07:30:03;97488.97;;;6.50;72.44
1401;BME280;46518;48.842;8.926;2022-12-28T07:32:31;97488.56;;;6.46;72.96
1401;BME280;46518;48.842;8.926;2022-12-28T07:35:03;97474.50;;;6.40;72.86
1401;BME280;46518;48.842;8.926;2022-12-28T07:37:32;97484.69;;;6.55;72.57
1401;BME280;46518;48.842;8.926;2022-12-28T07:40:02;97480.88;;;6.51;72.56
1401;BME280;46518;48.842;8.926;2022-12-28T07:42:48;97489.72;;;6.57;72.83
1401;BME280;46518;48.842;8.926;2022-12-28T07:45:16;97484.06;;;6.60;72.17
1401;BME280;46518;48.842;8.926;2022-12-28T07:47:45;97475.59;;;6.64;72.40
1401;BME280;46518;48.842;8.926;2022-12-28T07:50:13;97487.66;;;6.65;72.31
1401;BME280;46518;48.842;8.926;2022-12-28T07:52:41;97487.03;;;6.70;72.50
1401;BME280;46518;48.842;8.926;2022-12-28T07:55:10;97463.94;;;6.60;71.99
1401;BME280;46518;48.842;8.926;2022-12-28T07:57:39;97481.53;;;6.78;72.19
1401;BME280;46518;48.842;8.926;2022-12-28T08:00:08;97468.25;;;6.80;72.12
1401;BME280;46518;48.842;8.926;2022-12-28T08:02:44;97466.63;;;6.79;72.29
1401;BME280;46518;48.842;8.926;2022-12-28T08:05:12;97454.75;;;6.83;72.37
1401;BME280;46518;48.842;8.926;2022-12-28T08:07:40;97466.41;;;6.87;71.62
1401;BME280;46518;48.842;8.926;2022-12-28T08:10:08;97460.94;;;6.88;71.54
1401;BME280;46518;48.842;8.926;2022-12-28T08:12:38;97464.31;;;6.96;71.57
1401;BME280;46518;48.842;8.926;2022-12-28T08:15:07;97464.69;;;6.99;71.27
1401;BME280;46518;48.842;8.926;2022-12-28T08:17:35;97457.09;;;6.91;71.16
1401;BME280;46518;48.842;8.926;2022-12-28T08:20:04;97460.69;;;6.97;71.10
1401;BME280;46518;48.842;8.926;2022-12-28T08:22:32;97457.47;;;6.95;71.05
1401;BME280;46518;48.842;8.926;2022-12-28T08:25:01;97463.66;;;7.00;71.42
1401;BME280;46518;48.842;8.926;2022-12-28T08:27:29;97467.66;;;7.03;71.22
1401;BME280;46518;48.842;8.926;2022-12-28T08:30:07;97455.63;;;7.02;71.74
1401;BME280;46518;48.842;8.926;2022-12-28T08:32:38;97458.78;;;7.04;71.97
1401;BME280;46518;48.842;8.926;2022-12-28T08:35:07;97448.56;;;7.02;71.95
1401;BME280;46518;48.842;8.926;2022-12-28T08:37:35;97449.78;;;7.00;72.41
1401;BME280;46518;48.842;8.926;2022-12-28T08:40:05;97456.84;;;6.99;72.70
1401;BME280;46518;48.842;8.926;2022-12-28T08:42:33;97456.59;;;7.01;72.52
1401;BME280;46518;48.842;8.926;2022-12-28T08:45:01;97438.00;;;6.84;72.08
1401;BME280;46518;48.842;8.926;2022-12-28T08:47:31;97450.06;;;6.91;72.00
1401;BME280;46518;48.842;8.926;2022-12-28T08:49:59;97452.44;;;6.93;72.28
1401;BME280;46518;48.842;8.926;2022-12-28T08:52:27;97467.34;;;6.93;72.51
1401;BME280;46518;48.842;8.926;2022-12-28T08:54:55;97458.53;;;6.87;72.88
1401;BME280;46518;48.842;8.926;2022-12-28T08:57:24;97461.53;;;6.90;73.23
1401;BME280;46518;48.842;8.926;2022-12-28T08:59:52;97453.63;;;6.97;73.37
1401;BME280;46518;48.842;8.926;2022-12-28T09:02:20;97457.41;;;7.01;73.27
1401;BME280;46518;48.842;8.926;2022-12-28T09:04:49;97452.72;;;7.10;73.28
1401;BME280;46518;48.842;8.926;2022-12-28T09:07:17;97447.13;;;7.06;72.60
1401;BME280;46518;48.842;8.926;2022-12-28T09:09:47;97449.91;;;7.11;72.90
1401;BME280;46518;48.842;8.926;2022-12-28T09:12:15;97453.31;;;7.12;72.64
1401;BME280;46518;48.842;8.926;2022-12-28T09:14:43;97446.78;;;7.21;72.21
1401;BME280;46518;48.842;8.926;2022-12-28T09:17:11;97445.97;;;7.21;71.98
1401;BME280;46518;48.842;8.926;2022-12-28T09:19:40;97449.19;;;7.23;72.20
1401;BME280;46518;48.842;8.926;2022-12-28T09:22:12;97453.19;;;7.25;72.25
1401;BME280;46518;48.842;8.926;2022-12-28T09:24:40;97449.78;;;7.25;72.25
1401;BME280;46518;48.842;8.926;2022-12-28T09:27:08;97444.75;;;7.23;72.21
1401;BME280;46518;48.842;8.926;2022-12-28T09:29:45;97440.47;;;7.29;71.77
1401;BME280;46518;48.842;8.926;2022-12-28T09:32:13;97441.63;;;7.33;72.28
1401;BME280;46518;48.842;8.926;2022-12-28T09:34:41;97435.97;;;7.36;72.83
1401;BME280;46518;48.842;8.926;2022-12-28T09:37:09;97437.59;;;7.37;72.77
1401;BME280;46518;48.842;8.926;2022-12-28T09:39:47;97441.19;;;7.36;72.73
1401;BME280;46518;48.842;8.926;2022-12-28T09:42:18;97434.38;;;7.35;72.97
1401;BME280;46518;48.842;8.926;2022-12-28T09:44:55;97428.94;;;7.37;72.60
1401;BME280;46518;48.842;8.926;2022-12-28T09:47:34;97429.50;;;7.39;72.78
1401;BME280;46518;48.842;8.926;2022-12-28T09:50:26;97433.28;;;7.43;72.93
1401;BME280;46518;48.842;8.926;2022-12-28T09:55:57;97432.00;;;7.52;72.93
1401;BME280;46518;48.842;8.926;2022-12-28T09:58:28;97421.72;;;7.50;72.51
1401;BME280;46518;48.842;8.926;2022-12-28T10:00:58;97434.03;;;7.50;72.44
1401;BME280;46518;48.842;8.926;2022-12-28T10:03:32;97427.09;;;7.37;73.01
1401;BME280;46518;48.842;8.926;2022-12-28T10:06:02;97418.22;;;7.38;72.88
1401;BME280;46518;48.842;8.926;2022-12-28T10:08:34;97408.78;;;7.37;72.73
1401;BME280;46518;48.842;8.926;2022-12-28T10:11:06;97415.53;;;7.45;72.27
1401;BME280;46518;48.842;8.926;2022-12-28T10:13:37;97410.44;;;7.50;72.28
1401;BME280;46518;48.842;8.926;2022-12-28T10:16:27;97408.28;;;7.47;72.66
1401;BME280;46518;48.842;8.926;2022-12-28T10:18:56;97414.66;;;7.51;72.36
1401;BME280;46518;48.842;8.926;2022-12-28T10:21:29;97404.72;;;7.60;72.14
1401;BME280;46518;48.842;8.926;2022-12-28T10:24:00;97400.56;;;7.70;71.83
1401;BME280;46518;48.842;8.926;2022-12-28T10:26:54;97396.03;;;7.77;72.34
1401;BME280;46518;48.842;8.926;2022-12-28T10:29:25;97387.28;;;7.84;71.30
1401;BME280;46518;48.842;8.926;2022-12-28T10:31:59;97390.47;;;8.04;70.94
1401;BME280;46518;48.842;8.926;2022-12-28T10:34:28;97385.94;;;8.11;70.52
1401;BME280;46518;48.842;8.926;2022-12-28T10:37:05;97380.06;;;8.28;71.17
1401;BME280;46518;48.842;8.926;2022-12-28T10:39:48;97378.63;;;8.43;70.68
1401;BME280;46518;48.842;8.926;2022-12-28T10:42:25;97369.31;;;8.48;69.89
1401;BME280;46518;48.842;8.926;2022-12-28T10:45:01;97353.09;;;8.51;69.13
1401;BME280;46518;48.842;8.926;2022-12-28T10:47:33;97370.28;;;8.77;69.03
1401;BME280;46518;48.842;8.926;2022-12-28T10:50:03;97368.22;;;8.91;68.24
1401;BME280;46518;48.842;8.926;2022-12-28T10:52:55;97359.75;;;9.00;68.88
1401;BME280;46518;48.842;8.926;2022-12-28T10:55:26;97356.94;;;9.14;67.12
1401;BME280;46518;48.842;8.926;2022-12-28T10:58:14;97347.44;;;9.24;67.99
1401;BME280;46518;48.842;8.926;2022-12-28T11:01:05;97349.56;;;9.39;68.21
1401;BME280;46518;48.842;8.926;2022-12-28T11:03:44;97346.78;;;9.58;65.51
1401;BME280;46518;48.842;8.926;2022-12-28T11:06:14;97347.47;;;9.65;67.12
1401;BME280;46518;48.842;8.926;2022-12-28T11:09:04;97338.66;;;9.71;67.26
1401;BME280;46518;48.842;8.926;2022-12-28T11:11:32;97323.38;;;9.85;66.18
1401;BME280;46518;48.842;8.926;2022-12-28T11:14:05;97323.16;;;9.86;64.74
1401;BME280;46518;48.842;8.926;2022-12-28T11:16:39;97325.59;;;10.05;64.84
1401;BME280;46518;48.842;8.926;2022-12-28T11:19:08;97311.16;;;10.07;64.32
1401;BME280;46518;48.842;8.926;2022-12-28T11:21:37;97312.00;;;10.25;65.78
1401;BME280;46518;48.842;8.926;2022-12-28T11:24:11;97321.22;;;10.39;63.94
1401;BME280;46518;48.842;8.926;2022-12-28T11:26:42;97306.03;;;10.29;64.98
1401;BME280;46518;48.842;8.926;2022-12-28T11:29:14;97307.41;;;10.49;65.12
1401;BME280;46518;48.842;8.926;2022-12-28T11:31:46;97302.53;;;10.57;64.46
1401;BME280;46518;48.842;8.926;2022-12-28T11:34:18;97287.94;;;10.50;63.33
1401;BME280;46518;48.842;8.926;2022-12-28T11:36:46;97293.28;;;10.55;64.32
1401;BME280;46518;48.842;8.926;2022-12-28T11:39:40;97292.00;;;10.74;64.15
1401;BME280;46518;48.842;8.926;2022-12-28T11:42:10;97301.75;;;10.74;63.15
1401;BME280;46518;48.842;8.926;2022-12-28T11:45:00;97298.63;;;10.77;62.51
1401;BME280;46518;48.842;8.926;2022-12-28T11:47:30;97289.84;;;10.71;62.41
1401;BME280;46518;48.842;8.926;2022-12-28T11:53:19;97285.81;;;10.47;63.38
1401;BME280;46518;48.842;8.926;2022-12-28T11:56:04;97283.16;;;10.47;62.28
1401;BME280;46518;48.842;8.926;2022-12-28T11:59:04;97278.47;;;10.49;63.00
1401;BME280;46518;48.842;8.926;2022-12-28T12:01:48;97277.69;;;10.48;62.70
1401;BME280;46518;48.842;8.926;2022-12-28T12:04:41;97275.28;;;10.47;61.92
1401;BME280;46518;48.842;8.926;2022-12-28T12:07:23;97281.31;;;10.47;63.49
1401;BME280;46518;48.842;8.926;2022-12-28T12:10:41;97270.16;;;10.40;64.42
1401;BME280;46518;48.842;8.926;2022-12-28T12:13:40;97256.63;;;10.48;61.94
1401;BME280;46518;48.842;8.926;2022-12-28T12:16:21;97248.97;;;10.47;62.60
1401;BME280;46518;48.842;8.926;2022-12-28T12:18:54;97248.97;;;10.47;62.43
1401;BME280;46518;48.842;8.926;2022-12-28T12:21:36;97237.38;;;10.48;62.86
1401;BME280;46518;48.842;8.926;2022-12-28T12:24:19;97223.22;;;10.49;63.35
1401;BME280;46518;48.842;8.926;2022-12-28T12:26:54;97232.81;;;10.60;62.24
1401;BME280;46518;48.842;8.926;2022-12-28T12:29:29;97213.41;;;10.44;62.17
1401;BME280;46518;48.842;8.926;2022-12-28T12:32:02;97232.09;;;10.65;62.24
1401;BME280;46518;48.842;8.926;2022-12-28T12:34:40;97227.06;;;10.63;61.32
1401;BME280;46518;48.842;8.926;2022-12-28T12:37:34;97226.78;;;10.60;61.64
1401;BME280;46518;48.842;8.926;2022-12-28T12:43:25;97217.91;;;10.66;61.65
1401;BME280;46518;48.842;8.926;2022-12-28T12:46:04;97217.38;;;10.64;63.20
1401;BME280;46518;48.842;8.926;2022-12-28T12:49:20;97207.97;;;10.51;61.05
1401;BME280;46518;48.842;8.926;2022-12-28T12:51:59;97210.50;;;10.46;62.70
1401;BME280;46518;48.842;8.926;2022-12-28T12:54:44;97208.31;;;10.38;63.90
1401;BME280;46518;48.842;8.926;2022-12-28T12:57:20;97210.94;;;10.38;63.72
1401;BME280;46518;48.842;8.926;2022-12-28T13:00:00;97212.47;;;10.33;63.85
1401;BME280;46518;48.842;8.926;2022-12-28T13:02:47;97201.06;;;10.28;63.27
1401;BME280;46518;48.842;8.926;2022-12-28T13:05:20;97204.63;;;10.22;63.19
1401;BME280;46518;48.842;8.926;2022-12-28T13:07:50;97200.31;;;10.15;63.70
1401;BME280;46518;48.842;8.926;2022-12-28T13:10:25;97194.03;;;10.00;63.29
1401;BME280;46518;48.842;8.926;2022-12-28T13:12:57;97178.50;;;9.81;63.85
1401;BME280;46518;48.842;8.926;2022-12-28T13:15:27;97189.81;;;9.82;64.81
1401;BME280;46518;48.842;8.926;2022-12-28T13:17:59;97189.16;;;9.75;64.31
1401;BME280;46518;48.842;8.926;2022-12-28T13:20:53;97189.47;;;9.61;64.89
1401;BME280;46518;48.842;8.926;2022-12-28T13:23:23;97184.84;;;9.52;65.76
1401;BME280;46518;48.842;8.926;2022-12-28T13:25:53;97180.06;;;9.48;66.04
1401;BME280;46518;48.842;8.926;2022-12-28T13:28:26;97170.97;;;9.39;66.03
1401;BME280;46518;48.842;8.926;2022-12-28T13:31:04;97166.97;;;9.37;66.51
1401;BME280;46518;48.842;8.926;2022-12-28T13:34:00;97164.09;;;9.38;66.32
1401;BME280;46518;48.842;8.926;2022-12-28T13:36:29;97161.94;;;9.35;67.01
1401;BME280;46518;48.842;8.926;2022-12-28T13:39:13;97156.13;;;9.33;67.88
1401;BME280;46518;48.842;8.926;2022-12-28T13:41:47;97146.09;;;9.30;67.58
1401;BME280;46518;48.842;8.926;2022-12-28T13:44:29;97141.63;;;9.31;67.44
1401;BME280;46518;48.842;8.926;2022-12-28T13:47:05;97143.00;;;9.33;67.28
1401;BME280;46518;48.842;8.926;2022-12-28T13:49:41;97143.72;;;9.28;67.88
1401;BME280;46518;48.842;8.926;2022-12-28T13:52:15;97145.41;;;9.35;68.57
1401;BME280;46518;48.842;8.926;2022-12-28T13:54:49;97146.97;;;9.36;67.47
1401;BME280;46518;48.842;8.926;2022-12-28T13:57:20;97150.22;;;9.26;68.37
1401;BME280;46518;48.842;8.926;2022-12-28T14:00:10;97138.00;;;9.32;68.20
1401;BME280;46518;48.842;8.926;2022-12-28T14:02:39;97148.13;;;9.40;67.71
1401;BME280;46518;48.842;8.926;2022-12-28T14:05:14;97153.06;;;9.36;68.11